createdAt,value
2018-11-14T00:00:29.379Z,7.20
2018-11-14T00:02:59.432Z,7.20
2018-11-14T00:05:28.681Z,7.10
2018-11-14T00:07:57.936Z,7.10
2018-11-14T00:10:27.227Z,7.10
2018-11-14T00:12:56.493Z,7.10
2018-11-14T00:15:26.377Z,7.10
2018-11-14T00:17:55.861Z,7.10
2018-11-14T00:20:25.200Z,7.10
2018-11-14T00:22:54.488Z,7.10
2018-11-14T00:25:24.324Z,7.10
2018-11-14T00:27:53.615Z,7.10
2018-11-14T00:30:24.107Z,7.10
2018-11-14T00:32:53.624Z,7.00
2018-11-14T00:35:22.852Z,7.00
2018-11-14T00:37:52.295Z,6.90
2018-11-14T00:40:22.091Z,7.00
2018-11-14T00:42:51.782Z,7.10
2018-11-14T00:45:22.266Z,7.20
2018-11-14T00:47:52.066Z,7.30
2018-11-14T00:50:22.408Z,7.40
2018-11-14T00:52:51.659Z,7.50
2018-11-14T00:55:22.542Z,7.40
2018-11-14T00:57:52.693Z,7.40
2018-11-14T01:00:25.944Z,7.40
2018-11-14T01:02:55.450Z,7.40
2018-11-14T01:05:25.535Z,7.50
2018-11-14T01:07:54.807Z,7.40
2018-11-14T01:10:24.049Z,7.40
2018-11-14T01:12:53.324Z,7.50
2018-11-14T01:15:23.413Z,7.40
2018-11-14T01:17:52.652Z,7.50
2018-11-14T01:20:22.589Z,7.40
2018-11-14T01:22:51.960Z,7.40
2018-11-14T01:25:21.212Z,7.40
2018-11-14T01:27:50.501Z,7.50
2018-11-14T01:30:23.936Z,7.40
2018-11-14T01:32:54.045Z,7.40
2018-11-14T01:35:24.066Z,7.30
2018-11-14T01:37:53.299Z,7.30
2018-11-14T01:40:24.410Z,7.30
2018-11-14T01:42:55.013Z,7.20
2018-11-14T01:45:24.284Z,7.20
2018-11-14T01:47:53.648Z,7.10
2018-11-14T01:50:23.017Z,7.10
2018-11-14T01:52:52.270Z,7.20
2018-11-14T01:55:21.906Z,7.20
2018-11-14T01:57:51.190Z,7.30
2018-11-14T02:00:22.807Z,7.50
2018-11-14T02:02:52.144Z,7.60
2018-11-14T02:05:21.491Z,7.60
2018-11-14T02:07:50.728Z,7.60
2018-11-14T02:10:20.803Z,7.70
2018-11-14T02:12:50.226Z,7.80
2018-11-14T02:15:23.597Z,7.80
2018-11-14T02:17:53.437Z,7.90
2018-11-14T02:20:22.682Z,8.00
2018-11-14T02:22:51.974Z,8.00
2018-11-14T02:25:21.218Z,8.00
2018-11-14T02:27:50.482Z,8.00
2018-11-14T02:30:22.626Z,8.10
2018-11-14T02:32:51.865Z,8.10
2018-11-14T02:35:21.140Z,8.20
2018-11-14T02:37:50.504Z,8.20
2018-11-14T02:40:21.331Z,8.20
2018-11-14T02:42:51.249Z,8.20
2018-11-14T02:45:20.515Z,8.30
2018-11-14T02:47:49.780Z,8.30
2018-11-14T02:50:19.388Z,8.40
2018-11-14T02:52:48.714Z,8.40
2018-11-14T02:55:18.581Z,8.40
2018-11-14T02:57:48.069Z,8.50
2018-11-14T03:00:19.743Z,8.50
2018-11-14T03:02:49.154Z,8.50
2018-11-14T03:05:18.543Z,8.60
2018-11-14T03:07:47.792Z,8.60
2018-11-14T03:10:19.371Z,8.60
2018-11-14T03:12:48.660Z,8.60
2018-11-14T03:15:19.759Z,8.60
2018-11-14T03:17:48.983Z,8.60
2018-11-14T03:20:20.263Z,8.60
2018-11-14T03:22:49.563Z,8.70
2018-11-14T03:25:18.895Z,8.70
2018-11-14T03:27:49.363Z,8.70
2018-11-14T03:30:19.109Z,8.70
2018-11-14T03:32:48.405Z,8.70
2018-11-14T03:35:17.747Z,8.70
2018-11-14T03:37:47.037Z,8.70
2018-11-14T03:40:17.268Z,8.70
2018-11-14T03:42:46.641Z,8.70
2018-11-14T03:45:16.152Z,8.70
2018-11-14T03:47:45.482Z,8.70
2018-11-14T03:50:14.824Z,8.60
2018-11-14T03:52:44.087Z,8.60
2018-11-14T03:55:13.388Z,8.60
2018-11-14T03:57:42.785Z,8.60
2018-11-14T04:00:14.678Z,8.60
2018-11-14T04:02:45.140Z,8.60
2018-11-14T04:05:14.497Z,8.50
2018-11-14T04:07:43.861Z,8.50
2018-11-14T04:10:14.080Z,8.50
2018-11-14T04:12:43.980Z,8.40
2018-11-14T04:15:14.311Z,8.30
2018-11-14T04:17:43.611Z,8.30
2018-11-14T04:20:16.076Z,8.30
2018-11-14T04:22:45.982Z,8.20
2018-11-14T04:25:17.773Z,8.20
2018-11-14T04:27:48.382Z,8.20
2018-11-14T04:30:19.939Z,8.20
2018-11-14T04:32:49.568Z,8.20
2018-11-14T04:35:19.558Z,8.20
2018-11-14T04:37:49.796Z,8.20
2018-11-14T04:40:21.590Z,8.10
2018-11-14T04:42:51.358Z,8.10
2018-11-14T04:45:23.849Z,8.10
2018-11-14T04:47:53.230Z,8.10
2018-11-14T04:50:24.397Z,8.10
2018-11-14T04:52:54.080Z,8.10
2018-11-14T04:55:24.403Z,8.10
2018-11-14T04:57:53.654Z,8.10
2018-11-14T05:00:24.223Z,8.10
2018-11-14T05:02:53.565Z,8.10
2018-11-14T05:05:23.974Z,8.10
2018-11-14T05:07:53.265Z,8.10
2018-11-14T05:10:23.787Z,8.10
2018-11-14T05:12:53.400Z,8.10
2018-11-14T05:15:23.825Z,8.10
2018-11-14T05:17:53.666Z,8.10
2018-11-14T05:20:23.244Z,8.10
2018-11-14T05:22:52.769Z,8.10
2018-11-14T05:25:22.032Z,8.10
2018-11-14T05:27:51.287Z,8.10
2018-11-14T05:30:23.191Z,8.10
2018-11-14T05:32:52.928Z,8.10
2018-11-14T05:35:22.185Z,8.10
2018-11-14T05:37:51.461Z,8.10
2018-11-14T05:40:21.969Z,8.10
2018-11-14T05:42:52.610Z,8.10
2018-11-14T05:45:25.320Z,8.10
2018-11-14T05:47:54.611Z,8.10
2018-11-14T05:50:24.380Z,8.10
2018-11-14T05:52:53.632Z,8.10
2018-11-14T05:55:22.968Z,8.10
2018-11-14T05:57:52.343Z,8.10
2018-11-14T06:00:27.146Z,8.10
2018-11-14T06:02:56.940Z,8.10
2018-11-14T06:05:26.561Z,8.10
2018-11-14T06:07:55.896Z,8.10
2018-11-14T06:10:25.800Z,8.10
2018-11-14T06:12:55.235Z,8.10
2018-11-14T06:15:24.597Z,8.10
2018-11-14T06:17:55.066Z,8.10
2018-11-14T06:20:24.364Z,8.10
2018-11-14T06:22:54.299Z,8.00
2018-11-14T06:25:41.470Z,8.00
2018-11-14T06:28:11.556Z,8.00
2018-11-14T06:30:42.048Z,7.90
2018-11-14T06:33:11.980Z,7.90
2018-11-14T06:35:41.215Z,7.80
2018-11-14T06:38:10.472Z,7.80
2018-11-14T06:40:39.709Z,7.70
2018-11-14T06:43:09.033Z,7.70
2018-11-14T06:45:38.292Z,7.70
2018-11-14T06:48:07.664Z,7.60
2018-11-14T06:50:37.007Z,7.60
2018-11-14T06:53:07.203Z,7.50
2018-11-14T06:55:36.483Z,7.40
2018-11-14T06:58:06.365Z,7.40
2018-11-14T07:00:36.218Z,7.30
2018-11-14T07:03:06.844Z,7.30
2018-11-14T07:05:36.147Z,7.30
2018-11-14T07:08:05.709Z,7.20
2018-11-14T07:10:36.212Z,7.20
2018-11-14T07:13:08.173Z,7.10
2018-11-14T07:15:37.977Z,7.10
2018-11-14T07:18:08.213Z,7.10
2018-11-14T07:20:38.929Z,7.10
2018-11-14T07:23:08.424Z,7.10
2018-11-14T07:25:37.834Z,7.10
2018-11-14T07:28:07.245Z,7.10
2018-11-14T07:30:37.768Z,7.20
2018-11-14T07:33:09.857Z,7.30
2018-11-14T07:35:39.143Z,7.30
2018-11-14T07:38:46.851Z,7.30
2018-11-14T07:41:21.211Z,7.30
2018-11-14T07:43:50.578Z,7.40
2018-11-14T07:46:20.412Z,7.50
2018-11-14T07:48:50.447Z,7.50
2018-11-14T07:51:20.323Z,7.60
2018-11-14T07:53:49.636Z,7.70
2018-11-14T07:56:18.961Z,7.70
2018-11-14T07:58:48.573Z,7.70
2018-11-14T08:01:17.939Z,7.80
2018-11-14T08:03:47.213Z,7.80
2018-11-14T08:06:16.549Z,7.80
2018-11-14T08:08:46.237Z,7.90
2018-11-14T08:11:15.601Z,7.90
2018-11-14T08:13:46.174Z,7.90
2018-11-14T08:16:15.508Z,7.90
2018-11-14T08:18:44.871Z,7.80
2018-11-14T08:21:14.628Z,7.90
2018-11-14T08:23:43.863Z,7.90
2018-11-14T08:26:13.127Z,7.90
2018-11-14T08:28:42.466Z,7.90
2018-11-14T08:31:11.711Z,7.90
2018-11-14T08:33:41.096Z,7.90
2018-11-14T08:36:10.363Z,7.90
2018-11-14T08:38:39.833Z,7.90
2018-11-14T08:41:09.076Z,8.00
2018-11-14T08:43:38.324Z,8.00
2018-11-14T08:46:07.731Z,8.10
2018-11-14T08:48:37.053Z,8.10
2018-11-14T08:51:06.923Z,8.20
2018-11-14T08:53:36.173Z,8.20
2018-11-14T08:56:05.772Z,8.20
2018-11-14T08:58:35.099Z,8.20
2018-11-14T09:01:05.328Z,8.20
2018-11-14T09:03:35.531Z,8.20
2018-11-14T09:06:04.938Z,8.30
2018-11-14T09:08:34.195Z,8.30
2018-11-14T09:11:03.534Z,8.40
2018-11-14T09:13:33.497Z,8.40
2018-11-14T09:16:02.776Z,8.50
2018-11-14T09:18:32.117Z,8.50
2018-11-14T09:21:01.317Z,8.60
2018-11-14T09:23:30.618Z,8.60
2018-11-14T09:25:59.915Z,8.70
2018-11-14T09:28:29.169Z,8.80
2018-11-14T09:30:58.440Z,8.90
2018-11-14T09:33:27.814Z,9.10
2018-11-14T09:35:57.108Z,9.10
2018-11-14T09:38:26.337Z,9.20
2018-11-14T09:40:55.681Z,9.30
2018-11-14T09:43:24.862Z,9.30
2018-11-14T09:45:54.071Z,9.40
2018-11-14T09:48:23.329Z,9.40
2018-11-14T09:50:53.230Z,9.50
2018-11-14T09:53:22.744Z,9.50
2018-11-14T09:55:51.918Z,9.50
2018-11-14T09:58:21.160Z,9.50
2018-11-14T10:00:50.466Z,9.50
2018-11-14T10:03:19.759Z,9.60
2018-11-14T10:05:49.110Z,9.70
2018-11-14T10:08:18.644Z,9.80
2018-11-14T10:10:48.179Z,9.90
2018-11-14T10:13:17.473Z,9.90
2018-11-14T10:15:46.776Z,9.90
2018-11-14T10:18:16.048Z,10.00
2018-11-14T10:20:45.409Z,10.10
2018-11-14T10:23:14.691Z,10.10
2018-11-14T10:25:43.976Z,10.20
2018-11-14T10:28:13.239Z,10.30
2018-11-14T10:30:42.642Z,10.40
2018-11-14T10:33:11.889Z,10.40
2018-11-14T10:35:41.146Z,10.50
2018-11-14T10:38:10.441Z,10.60
2018-11-14T10:40:39.796Z,10.70
2018-11-14T10:43:09.190Z,10.70
2018-11-14T10:45:38.363Z,10.80
2018-11-14T10:48:07.635Z,10.70
2018-11-14T10:50:36.888Z,10.80
2018-11-14T10:53:06.257Z,10.80
2018-11-14T10:55:35.557Z,10.70
2018-11-14T10:58:05.366Z,10.70
2018-11-14T11:00:39.974Z,10.80
2018-11-14T11:04:15.221Z,10.90
2018-11-14T11:06:49.824Z,10.90
2018-11-14T11:09:24.453Z,11.00
2018-11-14T11:11:59.246Z,11.10
2018-11-14T11:14:32.376Z,11.20
2018-11-14T11:17:07.035Z,11.30
2018-11-14T11:19:36.344Z,11.20
2018-11-14T11:22:05.968Z,11.40
2018-11-14T11:24:35.206Z,11.30
2018-11-14T11:27:05.356Z,11.30
2018-11-14T11:29:34.688Z,11.20
2018-11-14T11:32:04.030Z,11.20
2018-11-14T11:34:33.246Z,11.30
2018-11-14T11:37:02.557Z,11.40
2018-11-14T11:39:31.818Z,11.50
2018-11-14T11:42:01.204Z,11.70
2018-11-14T11:44:30.543Z,11.70
2018-11-14T11:46:59.786Z,11.90
2018-11-14T11:49:29.088Z,11.80
2018-11-14T11:51:58.520Z,11.70
2018-11-14T11:54:27.805Z,11.80
2018-11-14T11:56:57.683Z,12.10
2018-11-14T11:59:27.018Z,12.00
2018-11-14T12:01:57.076Z,12.00
2018-11-14T12:04:26.425Z,12.20
2018-11-14T12:06:55.775Z,12.30
2018-11-14T12:09:25.016Z,12.30
2018-11-14T12:11:54.286Z,12.10
2018-11-14T12:14:23.531Z,12.10
2018-11-14T12:16:52.765Z,12.10
2018-11-14T12:19:22.027Z,12.30
2018-11-14T12:21:51.336Z,12.40
2018-11-14T12:24:20.762Z,12.70
2018-11-14T12:26:50.177Z,12.80
2018-11-14T12:29:19.570Z,12.70
2018-11-14T12:31:48.883Z,12.70
2018-11-14T12:34:18.213Z,12.90
2018-11-14T12:36:47.488Z,12.80
2018-11-14T12:39:16.803Z,13.00
2018-11-14T12:41:46.090Z,13.10
2018-11-14T12:44:15.567Z,13.10
2018-11-14T12:46:44.809Z,13.10
2018-11-14T12:49:14.569Z,13.20
2018-11-14T12:51:43.845Z,13.10
2018-11-14T12:54:13.098Z,13.20
2018-11-14T12:56:42.367Z,13.40
2018-11-14T12:59:11.687Z,13.40
2018-11-14T13:01:41.065Z,13.40
2018-11-14T13:04:10.538Z,13.00
2018-11-14T13:06:39.864Z,12.60
2018-11-14T13:09:10.094Z,12.50
2018-11-14T13:11:39.473Z,12.40
2018-11-14T13:14:08.810Z,12.40
2018-11-14T13:16:38.141Z,12.50
2018-11-14T13:19:07.481Z,12.30
2018-11-14T13:21:36.788Z,11.90
2018-11-14T13:24:06.291Z,11.80
2018-11-14T13:26:35.677Z,11.80
2018-11-14T13:29:05.084Z,12.10
2018-11-14T13:31:34.250Z,12.20
2018-11-14T13:34:03.521Z,12.20
2018-11-14T13:36:32.812Z,12.40
2018-11-14T13:39:02.147Z,12.40
2018-11-14T13:41:31.441Z,12.40
2018-11-14T13:44:00.763Z,12.60
2018-11-14T13:46:30.037Z,12.50
2018-11-14T13:48:59.331Z,12.30
2018-11-14T13:51:29.183Z,12.10
2018-11-14T13:53:58.520Z,12.00
2018-11-14T13:56:27.809Z,12.00
2018-11-14T13:58:57.053Z,12.00
2018-11-14T14:01:26.565Z,12.00
2018-11-14T14:03:55.785Z,12.00
2018-11-14T14:06:25.050Z,11.90
2018-11-14T14:08:54.350Z,11.80
2018-11-14T14:11:23.681Z,11.80
2018-11-14T14:13:58.167Z,11.80
2018-11-14T14:16:27.596Z,11.70
2018-11-14T14:18:57.841Z,11.70
2018-11-14T14:21:27.224Z,11.70
2018-11-14T14:23:56.493Z,11.60
2018-11-14T14:26:26.045Z,11.60
2018-11-14T14:28:55.320Z,11.60
2018-11-14T14:31:24.574Z,11.50
2018-11-14T14:33:53.912Z,11.50
2018-11-14T14:36:23.183Z,11.40
2018-11-14T14:38:52.467Z,11.40
2018-11-14T14:41:21.722Z,11.40
2018-11-14T14:43:51.025Z,11.40
2018-11-14T14:46:20.269Z,11.30
2018-11-14T14:48:49.590Z,11.30
2018-11-14T14:51:18.912Z,11.20
2018-11-14T14:53:48.318Z,11.20
2018-11-14T14:56:17.618Z,11.20
2018-11-14T14:58:46.884Z,11.20
2018-11-14T15:01:16.164Z,11.20
2018-11-14T15:03:45.414Z,11.10
2018-11-14T15:06:15.501Z,11.10
2018-11-14T15:08:44.757Z,11.10
2018-11-14T15:11:13.989Z,11.00
2018-11-14T15:13:43.264Z,11.00
2018-11-14T15:16:12.562Z,11.00
2018-11-14T15:18:41.828Z,11.00
2018-11-14T15:21:11.198Z,10.90
2018-11-14T15:23:40.506Z,10.90
2018-11-14T15:26:09.805Z,10.90
2018-11-14T15:28:39.181Z,10.80
2018-11-14T15:31:08.452Z,10.80
2018-11-14T15:33:37.712Z,10.80
2018-11-14T15:36:07.202Z,10.70
2018-11-14T15:38:36.341Z,10.60
2018-11-14T15:41:06.215Z,10.60
2018-11-14T15:43:35.600Z,10.60
2018-11-14T15:46:04.894Z,10.60
2018-11-14T15:48:34.154Z,10.50
2018-11-14T15:51:03.588Z,10.50
2018-11-14T15:53:32.864Z,10.50
2018-11-14T15:56:02.220Z,10.50
2018-11-14T15:58:32.238Z,10.50
2018-11-14T16:01:01.586Z,10.50
2018-11-14T16:03:30.815Z,10.50
2018-11-14T16:06:00.189Z,10.50
2018-11-14T16:08:29.588Z,10.50
2018-11-14T16:10:58.893Z,10.40
2018-11-14T16:13:28.264Z,10.30
2018-11-14T16:15:57.560Z,10.30
2018-11-14T16:18:26.841Z,10.30
2018-11-14T16:20:56.048Z,10.30
2018-11-14T16:23:25.292Z,10.20
2018-11-14T16:25:54.564Z,10.10
2018-11-14T16:28:23.848Z,10.10
2018-11-14T16:30:53.251Z,10.10
2018-11-14T16:33:23.246Z,10.00
2018-11-14T16:35:52.632Z,10.00
2018-11-14T16:38:21.952Z,10.00
2018-11-14T16:40:51.298Z,9.90
2018-11-14T16:43:20.576Z,9.90
2018-11-14T16:45:49.847Z,9.90
2018-11-14T16:48:19.160Z,9.80
2018-11-14T16:50:48.493Z,9.80
2018-11-14T16:53:19.164Z,9.80
2018-11-14T16:55:50.244Z,9.80
2018-11-14T16:58:19.397Z,9.80
2018-11-14T17:00:48.747Z,9.70
2018-11-14T17:03:17.968Z,9.70
2018-11-14T17:05:47.258Z,9.80
2018-11-14T17:08:16.568Z,9.70
2018-11-14T17:10:46.644Z,9.70
2018-11-14T17:13:15.888Z,9.70
2018-11-14T17:15:45.216Z,9.60
2018-11-14T17:18:15.143Z,9.60
2018-11-14T17:20:45.282Z,9.50
2018-11-14T17:23:14.790Z,9.50
2018-11-14T17:25:44.207Z,9.40
2018-11-14T17:28:13.428Z,9.40
2018-11-14T17:30:42.963Z,9.30
2018-11-14T17:33:12.292Z,9.30
2018-11-14T17:35:41.498Z,9.20
2018-11-14T17:38:10.956Z,9.20
2018-11-14T17:40:40.244Z,9.10
2018-11-14T17:43:09.584Z,9.00
2018-11-14T17:45:39.321Z,9.00
2018-11-14T17:48:08.582Z,9.00
2018-11-14T17:50:37.879Z,9.00
2018-11-14T17:53:07.466Z,9.00
2018-11-14T17:55:36.888Z,8.90
2018-11-14T17:58:06.182Z,8.90
2018-11-14T18:00:35.599Z,8.90
2018-11-14T18:03:05.173Z,8.90
2018-11-14T18:05:34.329Z,9.00
2018-11-14T18:08:03.600Z,8.90
2018-11-14T18:10:32.932Z,8.80
2018-11-14T18:13:02.862Z,8.80
2018-11-14T18:15:32.170Z,8.70
2018-11-14T18:18:01.490Z,8.80
2018-11-14T18:20:32.131Z,8.80
2018-11-14T18:23:01.693Z,8.70
2018-11-14T18:25:31.017Z,8.80
2018-11-14T18:28:00.304Z,8.80
2018-11-14T18:30:30.740Z,8.70
2018-11-14T18:33:01.341Z,8.60
2018-11-14T18:35:30.973Z,8.60
2018-11-14T18:38:00.768Z,8.50
2018-11-14T18:40:31.548Z,8.50
2018-11-14T18:43:00.872Z,8.40
2018-11-14T18:45:31.595Z,8.50
2018-11-14T18:48:01.608Z,8.40
2018-11-14T18:50:30.998Z,8.30
2018-11-14T18:53:00.293Z,8.30
2018-11-14T18:55:31.827Z,8.30
2018-11-14T18:58:02.069Z,8.20
2018-11-14T19:00:33.703Z,8.20
2018-11-14T19:03:03.026Z,8.20
2018-11-14T19:05:32.318Z,8.20
2018-11-14T19:08:01.704Z,8.20
2018-11-14T19:10:32.436Z,8.20
2018-11-14T19:13:01.757Z,8.20
2018-11-14T19:15:32.473Z,8.10
2018-11-14T19:18:01.782Z,8.10
2018-11-14T19:20:32.308Z,8.10
2018-11-14T19:23:02.313Z,8.00
2018-11-14T19:25:33.060Z,8.00
2018-11-14T19:28:03.025Z,8.00
2018-11-14T19:30:33.730Z,7.90
2018-11-14T19:33:03.369Z,8.00
2018-11-14T19:35:32.672Z,8.00
2018-11-14T19:38:02.655Z,7.90
2018-11-14T19:40:35.889Z,7.90
2018-11-14T19:43:08.308Z,7.80
2018-11-14T19:45:38.571Z,7.80
2018-11-14T19:48:08.345Z,7.80
2018-11-14T19:50:37.771Z,7.70
2018-11-14T19:53:06.992Z,7.70
2018-11-14T19:55:36.872Z,7.70
2018-11-14T19:58:06.756Z,7.60
2018-11-14T20:00:37.426Z,7.60
2018-11-14T20:03:07.039Z,7.50
2018-11-14T20:05:36.397Z,7.40
2018-11-14T20:08:06.198Z,7.30
2018-11-14T20:10:35.581Z,7.20
2018-11-14T20:13:04.818Z,7.20
2018-11-14T20:15:35.635Z,7.20
2018-11-14T20:18:05.235Z,7.00
2018-11-14T20:20:35.921Z,7.00
2018-11-14T20:23:05.393Z,6.90
2018-11-14T20:25:35.191Z,6.90
2018-11-14T20:28:04.508Z,7.00
2018-11-14T20:30:36.533Z,6.90
2018-11-14T20:33:08.714Z,7.00
2018-11-14T20:35:38.228Z,7.00
2018-11-14T20:38:07.518Z,6.90
2018-11-14T20:40:38.892Z,6.80
2018-11-14T20:43:22.365Z,6.80
2018-11-14T20:45:53.560Z,6.70
2018-11-14T20:48:26.814Z,6.70
2018-11-14T20:50:56.111Z,6.70
2018-11-14T20:53:25.690Z,6.70
2018-11-14T20:55:55.096Z,6.60
2018-11-14T20:58:24.387Z,6.60
2018-11-14T21:00:53.674Z,6.60
2018-11-14T21:03:24.401Z,6.50
2018-11-14T21:05:55.248Z,6.50
2018-11-14T21:08:25.560Z,6.50
2018-11-14T21:10:55.154Z,6.50
2018-11-14T21:13:24.491Z,6.50
2018-11-14T21:15:53.755Z,6.50
2018-11-14T21:18:23.083Z,6.40
2018-11-14T21:20:52.384Z,6.30
2018-11-14T21:23:21.669Z,6.30
2018-11-14T21:25:51.011Z,6.20
2018-11-14T21:28:20.287Z,6.10
2018-11-14T21:30:49.563Z,6.10
2018-11-14T21:33:18.846Z,6.10
2018-11-14T21:35:48.090Z,6.00
2018-11-14T21:38:17.459Z,6.00
2018-11-14T21:40:46.678Z,5.90
2018-11-14T21:43:15.981Z,5.90
2018-11-14T21:45:45.243Z,5.90
2018-11-14T21:48:15.840Z,5.90
2018-11-14T21:50:45.947Z,5.90
2018-11-14T21:53:15.350Z,5.90
2018-11-14T21:55:44.553Z,5.90
2018-11-14T21:58:13.986Z,5.90
2018-11-14T22:00:43.332Z,6.00
2018-11-14T22:03:12.685Z,6.00
2018-11-14T22:05:43.599Z,5.90
2018-11-14T22:08:12.872Z,5.90
2018-11-14T22:10:42.102Z,5.90
2018-11-14T22:13:11.492Z,5.90
2018-11-14T22:15:40.796Z,5.80
2018-11-14T22:18:10.121Z,5.80
2018-11-14T22:20:39.354Z,5.70
2018-11-14T22:23:08.616Z,5.70
2018-11-14T22:25:37.978Z,5.70
2018-11-14T22:28:07.546Z,5.70
2018-11-14T22:30:36.644Z,5.70
2018-11-14T22:33:06.010Z,5.70
2018-11-14T22:35:36.058Z,5.70
2018-11-14T22:38:05.407Z,5.70
2018-11-14T22:40:34.672Z,5.70
2018-11-14T22:43:03.948Z,5.70
2018-11-14T22:45:33.736Z,5.60
2018-11-14T22:48:02.993Z,5.60
2018-11-14T22:50:32.278Z,5.60
2018-11-14T22:53:01.548Z,5.60
2018-11-14T22:55:30.793Z,5.50
2018-11-14T22:58:00.042Z,5.60
2018-11-14T23:00:31.365Z,5.50
2018-11-14T23:03:02.036Z,5.50
2018-11-14T23:05:31.456Z,5.50
2018-11-14T23:08:01.100Z,5.40
2018-11-14T23:10:30.405Z,5.50
2018-11-14T23:12:59.687Z,5.40
2018-11-14T23:15:29.098Z,5.40
2018-11-14T23:17:58.324Z,5.40
2018-11-14T23:20:27.594Z,5.40
2018-11-14T23:22:57.041Z,5.40
2018-11-14T23:25:26.250Z,5.30
2018-11-14T23:27:56.358Z,5.30
2018-11-14T23:30:27.212Z,5.30
2018-11-14T23:32:57.492Z,5.30
2018-11-14T23:35:31.155Z,5.20
2018-11-14T23:38:01.768Z,5.20
2018-11-14T23:40:31.160Z,5.20
2018-11-14T23:43:00.463Z,5.20
2018-11-14T23:45:30.343Z,5.10
2018-11-14T23:47:59.617Z,5.10
2018-11-14T23:50:30.183Z,5.10
2018-11-14T23:53:00.501Z,5.10
2018-11-14T23:55:30.528Z,5.10
2018-11-14T23:58:00.862Z,5.00
